Time;durP1;ratioP1;P1;durP2;ratioP2;P2;SDS_P1;SDS_P2;PMS_P1;PMS_P2;Temp;Humidity;BMP_temperature;BMP_pressure;BME280_temperature;BME280_humidity;BME280_pressure;Samples;Min_cycle;Max_cycle;Signal;HPM_P1;HPM_P2
2022/07/03 00:01:28;;;;;;;13.75;12.95;;;;;;;;;;5056842;28;20340;-66
2022/07/03 00:03:53;;;;;;;15.73;14.82;;;;;;;;;;5059291;28;20054;-66
2022/07/03 00:06:19;;;;;;;14.32;13.50;;;;;;;;;;5053603;28;20275;-66
2022/07/03 00:08:44;;;;;;;14.00;13.20;;;;;;;;;;5056155;28;20025;-66
2022/07/03 00:11:11;;;;;;;14.82;13.95;;;;;;;;;;5055825;28;20052;-66
2022/07/03 00:13:37;;;;;;;12.75;11.98;;;;;;;;;;5055773;28;20040;-66
2022/07/03 00:16:02;;;;;;;11.18;10.48;;;;;;;;;;5048558;28;20032;-66
2022/07/03 00:18:28;;;;;;;10.32;9.65;;;;;;;;;;5051400;28;20102;-66
2022/07/03 00:21:02;;;;;;;9.80;9.20;;;;;;;;;;5057723;28;20043;-66
2022/07/03 00:23:36;;;;;;;10.00;9.40;;;;;;;;;;5053392;28;20028;-66
2022/07/03 00:26:04;;;;;;;10.05;9.38;;;;;;;;;;5053314;28;20307;-66
2022/07/03 00:28:31;;;;;;;9.02;8.25;;;;;;;;;;5052906;28;20020;-66
2022/07/03 00:30:57;;;;;;;9.38;8.73;;;;;;;;;;5051844;28;20029;-66
2022/07/03 00:33:25;;;;;;;13.35;12.55;;;;;;;;;;5053584;28;20029;-66
2022/07/03 00:35:54;;;;;;;12.25;11.48;;;;;;;;;;5052332;28;20044;-64
2022/07/03 00:38:20;;;;;;;14.45;13.63;;;;;;;;;;5053526;28;20037;-63
2022/07/03 00:40:46;;;;;;;18.23;17.17;;;;;;;;;;5055969;28;20051;-64
2022/07/03 00:43:15;;;;;;;18.23;17.20;;;;;;;;;;5053894;28;20028;-64
2022/07/03 00:45:46;;;;;;;14.05;13.25;;;;;;;;;;5051446;28;20405;-64
2022/07/03 00:48:13;;;;;;;12.73;11.93;;;;;;;;;;5050742;28;20032;-64
2022/07/03 00:50:45;;;;;;;11.57;10.82;;;;;;;;;;5053655;28;20116;-64
2022/07/03 00:53:12;;;;;;;11.38;10.68;;;;;;;;;;5053374;28;20442;-64
2022/07/03 00:55:40;;;;;;;11.98;11.27;;;;;;;;;;5053028;28;20060;-65
2022/07/03 00:58:06;;;;;;;10.93;10.25;;;;;;;;;;5052105;28;20025;-64
2022/07/03 01:00:35;;;;;;;12.75;11.98;;;;;;;;;;5054424;28;20040;-64
2022/07/03 01:03:06;;;;;;;13.70;12.90;;;;;;;;;;5056848;28;20035;-64
2022/07/03 01:05:39;;;;;;;;;;;;;;;;;;5051173;28;20120;-64
2022/07/03 01:08:05;;;;;;;10.55;9.85;;;;;;;;;;5055002;28;19916;-64
2022/07/03 01:10:54;;;;;;;10.30;9.70;;;;;;;;;;5055599;28;20024;-65
2022/07/03 01:13:50;;;;;;;9.93;9.32;;;;;;;;;;5055634;28;20043;-65
2022/07/03 01:16:34;;;;;;;9.57;8.98;;;;;;;;;;5055183;28;20024;-64
2022/07/03 01:19:47;;;;;;;8.48;7.97;;;;;;;;;;5053929;28;20029;-64
2022/07/03 01:22:25;;;;;;;10.25;9.60;;;;;;;;;;5042628;28;20385;-65
2022/07/03 01:25:26;;;;;;;10.73;9.93;;;;;;;;;;5050432;28;20132;-65
2022/07/03 01:28:00;;;;;;;12.45;11.68;;;;;;;;;;5054726;28;20573;-65
2022/07/03 01:30:29;;;;;;;16.00;15.10;;;;;;;;;;5058380;28;20139;-63
2022/07/03 01:33:09;;;;;;;15.48;14.60;;;;;;;;;;5055046;28;20060;-63
2022/07/03 01:35:41;;;;;;;14.15;13.35;;;;;;;;;;5049860;28;20032;-63
2022/07/03 01:38:13;;;;;;;16.52;15.52;;;;;;;;;;5052745;28;20045;-63
2022/07/03 01:40:41;;;;;;;14.15;13.35;;;;;;;;;;5051524;28;20039;-64
2022/07/03 01:43:11;;;;;;;13.55;12.75;;;;;;;;;;5052073;28;20546;-64
2022/07/03 01:45:40;;;;;;;14.25;13.45;;;;;;;;;;5051919;28;20033;-65
2022/07/03 01:48:07;;;;;;;14.63;13.80;;;;;;;;;;5054223;28;20032;-65
2022/07/03 01:50:33;;;;;;;19.08;18.00;;;;;;;;;;5054335;28;20029;-64
2022/07/03 01:53:03;;;;;;;17.63;16.63;;;;;;;;;;5056461;28;20418;-64
2022/07/03 01:55:32;;;;;;;17.83;16.83;;;;;;;;;;5051091;28;20087;-64
2022/07/03 01:57:59;;;;;;;17.88;16.88;;;;;;;;;;5053527;28;20032;-64
2022/07/03 02:00:24;;;;;;;17.77;16.77;;;;;;;;;;5051398;28;20029;-64
2022/07/03 02:02:49;;;;;;;20.77;19.60;;;;;;;;;;5054278;28;20520;-65
2022/07/03 02:05:41;;;;;;;20.25;19.15;;;;;;;;;;5053974;28;20036;-64
2022/07/03 02:08:37;;;;;;;19.15;18.05;;;;;;;;;;5051791;28;20374;-66
2022/07/03 02:11:12;;;;;;;18.83;17.83;;;;;;;;;;5053296;28;20100;-66
2022/07/03 02:13:54;;;;;;;17.80;16.80;;;;;;;;;;5054294;28;20040;-65
2022/07/03 02:16:22;;;;;;;15.98;15.07;;;;;;;;;;5052359;28;20039;-65
2022/07/03 02:19:03;;;;;;;14.18;12.85;;;;;;;;;;5051341;28;20056;-64
2022/07/03 02:21:29;;;;;;;12.85;12.10;;;;;;;;;;5049780;28;20051;-65
2022/07/03 02:24:05;;;;;;;13.65;12.85;;;;;;;;;;5048512;28;20037;-65
2022/07/03 02:26:34;;;;;;;13.82;13.02;;;;;;;;;;5055246;28;20059;-66
2022/07/03 02:29:14;;;;;;;13.63;12.82;;;;;;;;;;5052006;28;20029;-65
2022/07/03 02:31:58;;;;;;;16.30;15.10;;;;;;;;;;5049005;28;20068;-67
2022/07/03 02:34:25;;;;;;;14.82;13.95;;;;;;;;;;5053066;28;20502;-66
2022/07/03 02:36:57;;;;;;;16.35;15.45;;;;;;;;;;5052415;28;20040;-67
2022/07/03 02:39:31;;;;;;;14.57;13.70;;;;;;;;;;5050059;28;20610;-65
2022/07/03 02:42:03;;;;;;;17.85;16.85;;;;;;;;;;5054219;28;20021;-67
2022/07/03 02:44:44;;;;;;;17.45;16.45;;;;;;;;;;5052239;28;20029;-66
2022/07/03 02:47:27;;;;;;;16.35;15.25;;;;;;;;;;5052348;28;20052;-66
2022/07/03 02:50:14;;;;;;;16.02;15.13;;;;;;;;;;5052860;28;20098;-67
2022/07/03 02:52:54;;;;;;;13.77;12.90;;;;;;;;;;5052900;28;20101;-65
2022/07/03 02:55:54;;;;;;;14.13;13.32;;;;;;;;;;5055257;28;20044;-65
2022/07/03 02:58:53;;;;;;;15.77;14.88;;;;;;;;;;5024001;28;20364;-67
2022/07/03 03:01:38;;;;;;;13.25;12.45;;;;;;;;;;5052611;28;20043;-66
2022/07/03 03:04:28;;;;;;;15.02;14.13;;;;;;;;;;5051466;28;20067;-66
2022/07/03 03:06:55;;;;;;;13.38;12.57;;;;;;;;;;5056819;28;20370;-66
2022/07/03 03:09:27;;;;;;;14.30;13.50;;;;;;;;;;5056489;28;20049;-67
2022/07/03 03:12:00;;;;;;;13.07;12.30;;;;;;;;;;5056458;28;20324;-66
2022/07/03 03:14:32;;;;;;;15.27;14.38;;;;;;;;;;5053529;28;20754;-65
2022/07/03 03:17:01;;;;;;;16.05;15.15;;;;;;;;;;5053464;28;20105;-65
2022/07/03 03:19:27;;;;;;;13.88;13.07;;;;;;;;;;5057167;28;20025;-65
2022/07/03 03:22:12;;;;;;;14.13;13.32;;;;;;;;;;5060382;28;20067;-67
2022/07/03 03:24:38;;;;;;;14.18;13.38;;;;;;;;;;5056339;28;20120;-67
2022/07/03 03:27:04;;;;;;;14.15;13.35;;;;;;;;;;5055911;28;20129;-67
2022/07/03 03:29:30;;;;;;;13.60;12.80;;;;;;;;;;5054274;28;20580;-67
2022/07/03 03:31:55;;;;;;;15.90;15.00;;;;;;;;;;5055667;28;20048;-67
2022/07/03 03:34:22;;;;;;;14.25;13.45;;;;;;;;;;5051741;28;20462;-67
2022/07/03 03:36:47;;;;;;;13.68;12.88;;;;;;;;;;5052159;28;20175;-67
2022/07/03 03:39:14;;;;;;;13.63;12.82;;;;;;;;;;5048769;28;20029;-68
2022/07/03 03:41:39;;;;;;;14.90;14.00;;;;;;;;;;5057126;28;20112;-67
2022/07/03 03:44:04;;;;;;;14.63;13.73;;;;;;;;;;5055874;28;20497;-67
2022/07/03 03:46:30;;;;;;;13.52;12.73;;;;;;;;;;5054565;28;20518;-68
2022/07/03 03:48:56;;;;;;;14.20;13.40;;;;;;;;;;5054465;28;20032;-68
2022/07/03 03:51:22;;;;;;;13.65;12.85;;;;;;;;;;5056283;28;20043;-68
2022/07/03 03:53:47;;;;;;;14.43;13.63;;;;;;;;;;5050855;28;20032;-68
2022/07/03 03:56:15;;;;;;;13.77;12.88;;;;;;;;;;5056856;28;20123;-67
2022/07/03 03:58:42;;;;;;;16.25;15.35;;;;;;;;;;5054059;28;20706;-67
2022/07/03 04:01:10;;;;;;;13.80;13.00;;;;;;;;;;5052211;28;20045;-68
2022/07/03 04:03:36;;;;;;;16.63;15.73;;;;;;;;;;5051376;28;20132;-68
2022/07/03 04:06:02;;;;;;;12.35;11.65;;;;;;;;;;5055470;28;20024;-68
2022/07/03 04:08:28;;;;;;;12.38;11.63;;;;;;;;;;5056905;28;20530;-68
2022/07/03 04:10:54;;;;;;;12.10;11.40;;;;;;;;;;5052476;28;20587;-68
2022/07/03 04:13:20;;;;;;;11.85;11.15;;;;;;;;;;5051306;28;20028;-69
2022/07/03 04:15:46;;;;;;;14.05;13.25;;;;;;;;;;5052279;28;20029;-68
2022/07/03 04:18:11;;;;;;;12.68;11.98;;;;;;;;;;5053130;28;20051;-69
2022/07/03 04:20:37;;;;;;;12.45;11.75;;;;;;;;;;5052675;28;20902;-68
2022/07/03 04:23:02;;;;;;;14.30;13.50;;;;;;;;;;5051353;28;20029;-69
2022/07/03 04:25:28;;;;;;;12.00;11.30;;;;;;;;;;5053293;28;20033;-68
2022/07/03 04:27:53;;;;;;;12.90;12.18;;;;;;;;;;5051694;28;20044;-67
2022/07/03 04:30:19;;;;;;;13.85;13.05;;;;;;;;;;5050214;28;20028;-67
2022/07/03 04:32:45;;;;;;;14.32;13.52;;;;;;;;;;5052139;28;20040;-68
2022/07/03 04:35:11;;;;;;;14.77;13.90;;;;;;;;;;5054248;28;20033;-68
2022/07/03 04:37:36;;;;;;;15.20;14.30;;;;;;;;;;5056547;28;20029;-68
2022/07/03 04:40:02;;;;;;;13.38;12.57;;;;;;;;;;5052688;28;20083;-68
2022/07/03 04:42:28;;;;;;;15.20;14.30;;;;;;;;;;5055728;28;20649;-68
2022/07/03 04:44:53;;;;;;;12.63;11.82;;;;;;;;;;5049122;28;20111;-68
2022/07/03 04:47:19;;;;;;;13.70;12.90;;;;;;;;;;5056415;28;20035;-69
2022/07/03 04:49:44;;;;;;;14.23;13.43;;;;;;;;;;5055007;28;20237;-68
2022/07/03 04:52:10;;;;;;;12.10;11.40;;;;;;;;;;5058569;28;20494;-68
2022/07/03 04:54:36;;;;;;;12.70;11.98;;;;;;;;;;5048193;28;20037;-69
2022/07/03 04:57:02;;;;;;;13.05;12.27;;;;;;;;;;5054938;28;20024;-68
2022/07/03 04:59:27;;;;;;;13.38;12.48;;;;;;;;;;5056012;28;20336;-69
2022/07/03 05:01:52;;;;;;;12.75;12.00;;;;;;;;;;5055801;28;20403;-69
2022/07/03 05:04:18;;;;;;;12.27;11.57;;;;;;;;;;5049927;28;20036;-60
2022/07/03 05:06:44;;;;;;;9.43;8.82;;;;;;;;;;5056157;28;20036;-60
2022/07/03 05:09:10;;;;;;;12.95;12.15;;;;;;;;;;5055042;28;20020;-60
2022/07/03 05:11:35;;;;;;;13.38;12.57;;;;;;;;;;5054554;28;20024;-60
2022/07/03 05:14:02;;;;;;;10.65;9.80;;;;;;;;;;5051452;28;20136;-61
2022/07/03 05:16:27;;;;;;;12.30;11.60;;;;;;;;;;5055571;28;20527;-60
2022/07/03 05:18:53;;;;;;;11.07;10.38;;;;;;;;;;5054845;28;20032;-60
2022/07/03 05:21:18;;;;;;;11.18;10.48;;;;;;;;;;5055566;28;20096;-60
2022/07/03 05:23:43;;;;;;;11.98;11.20;;;;;;;;;;5053198;28;20041;-60
2022/07/03 05:26:09;;;;;;;10.70;10.00;;;;;;;;;;5056611;28;20032;-60
2022/07/03 05:28:34;;;;;;;14.00;13.10;;;;;;;;;;5053029;28;20036;-60
2022/07/03 05:31:00;;;;;;;12.98;12.23;;;;;;;;;;5051241;28;20028;-60
2022/07/03 05:33:25;;;;;;;11.73;11.02;;;;;;;;;;5052417;28;20039;-60
2022/07/03 05:35:51;;;;;;;10.77;10.07;;;;;;;;;;5053902;28;20041;-60
2022/07/03 05:41:00;;;;;;;12.48;11.77;;;;;;;;;;5054799;28;20032;-60
2022/07/03 05:43:25;;;;;;;11.48;10.77;;;;;;;;;;5053351;28;20342;-60
2022/07/03 05:45:51;;;;;;;16.42;15.52;;;;;;;;;;5053859;28;20477;-60
2022/07/03 05:48:16;;;;;;;12.23;11.52;;;;;;;;;;5055770;28;20508;-60
2022/07/03 05:50:42;;;;;;;18.10;17.10;;;;;;;;;;5056046;28;20423;-60
2022/07/03 05:53:07;;;;;;;14.23;13.35;;;;;;;;;;5055143;28;20865;-60
2022/07/03 05:55:32;;;;;;;20.00;18.90;;;;;;;;;;5052305;28;20270;-60
2022/07/03 05:57:57;;;;;;;18.17;17.17;;;;;;;;;;5056927;28;20039;-60
2022/07/03 06:00:23;;;;;;;20.08;18.98;;;;;;;;;;5053529;28;20024;-60
2022/07/03 06:02:48;;;;;;;20.65;19.55;;;;;;;;;;5054393;28;20032;-60
2022/07/03 06:05:14;;;;;;;19.55;18.42;;;;;;;;;;5053231;28;20478;-60
2022/07/03 06:07:39;;;;;;;19.63;18.52;;;;;;;;;;5049890;28;20308;-61
2022/07/03 06:10:05;;;;;;;20.27;19.17;;;;;;;;;;5054430;28;20121;-60
2022/07/03 06:12:30;;;;;;;17.85;16.85;;;;;;;;;;5055293;28;20037;-60
2022/07/03 06:14:56;;;;;;;18.98;17.88;;;;;;;;;;5053666;28;20036;-60
2022/07/03 06:17:21;;;;;;;13.45;12.65;;;;;;;;;;5053292;28;20028;-60
2022/07/03 06:19:46;;;;;;;15.38;14.48;;;;;;;;;;5054037;28;20035;-60
2022/07/03 06:22:12;;;;;;;14.70;13.88;;;;;;;;;;5053540;28;20465;-60
2022/07/03 06:24:37;;;;;;;14.25;13.43;;;;;;;;;;5051064;28;20066;-60
2022/07/03 06:27:03;;;;;;;12.23;11.52;;;;;;;;;;5052820;28;20107;-60
2022/07/03 06:29:29;;;;;;;7.80;7.30;;;;;;;;;;5052769;28;20036;-60
2022/07/03 06:31:54;;;;;;;8.45;7.85;;;;;;;;;;5056889;28;20029;-61
2022/07/03 06:34:19;;;;;;;8.95;8.27;;;;;;;;;;5050854;28;20021;-60
2022/07/03 06:36:45;;;;;;;8.98;8.38;;;;;;;;;;5055623;28;20591;-59
2022/07/03 06:39:10;;;;;;;9.50;8.90;;;;;;;;;;5053770;28;20179;-60
2022/07/03 06:41:35;;;;;;;11.07;10.38;;;;;;;;;;5058093;28;20047;-60
2022/07/03 06:44:01;;;;;;;14.45;13.65;;;;;;;;;;5057450;28;20040;-60
2022/07/03 06:46:26;;;;;;;14.57;13.73;;;;;;;;;;5060443;28;20362;-60
2022/07/03 06:48:51;;;;;;;28.38;26.90;;;;;;;;;;5057298;28;20099;-60
2022/07/03 06:51:17;;;;;;;30.02;28.42;;;;;;;;;;5057824;28;20043;-60
2022/07/03 06:53:42;;;;;;;46.15;43.80;;;;;;;;;;5055518;28;20045;-60
2022/07/03 06:56:07;;;;;;;48.83;46.33;;;;;;;;;;5055648;28;20036;-60
2022/07/03 06:58:33;;;;;;;54.17;51.38;;;;;;;;;;5057018;28;20044;-60
2022/07/03 07:00:58;;;;;;;52.63;49.92;;;;;;;;;;5054693;28;20032;-59
2022/07/03 07:03:23;;;;;;;56.78;53.97;;;;;;;;;;5058387;28;20047;-59
2022/07/03 07:05:49;;;;;;;63.30;60.00;;;;;;;;;;5057609;28;20029;-60
2022/07/03 07:08:14;;;;;;;57.75;54.88;;;;;;;;;;5055047;28;20028;-60
2022/07/03 07:10:39;;;;;;;71.20;67.63;;;;;;;;;;5056655;28;20031;-60
2022/07/03 07:13:05;;;;;;;76.53;72.75;;;;;;;;;;5058454;28;20048;-60
2022/07/03 07:15:30;;;;;;;64.15;60.95;;;;;;;;;;5058244;28;20040;-60
2022/07/03 07:17:55;;;;;;;74.63;70.93;;;;;;;;;;5058490;28;20029;-59
2022/07/03 07:20:21;;;;;;;71.50;67.97;;;;;;;;;;5057375;28;20025;-60
2022/07/03 07:22:46;;;;;;;82.55;78.50;;;;;;;;;;5058361;28;20056;-60
2022/07/03 07:25:11;;;;;;;63.03;59.83;;;;;;;;;;5055377;28;20033;-60
2022/07/03 07:27:37;;;;;;;66.80;63.47;;;;;;;;;;5056635;28;20025;-60
2022/07/03 07:30:03;;;;;;;65.43;62.17;;;;;;;;;;5056350;28;20454;-60
2022/07/03 07:32:28;;;;;;;79.90;75.93;;;;;;;;;;5055629;28;20039;-60
2022/07/03 07:34:53;;;;;;;75.13;71.40;;;;;;;;;;5055870;28;20029;-59
2022/07/03 07:37:19;;;;;;;82.30;78.28;;;;;;;;;;5054443;28;20068;-60
2022/07/03 07:39:44;;;;;;;89.35;84.97;;;;;;;;;;5055491;28;20401;-59
2022/07/03 07:42:10;;;;;;;130.60;124.10;;;;;;;;;;5057241;28;20079;-59
2022/07/03 07:44:35;;;;;;;134.77;128.15;;;;;;;;;;5058516;28;20049;-59
2022/07/03 07:47:00;;;;;;;131.20;124.75;;;;;;;;;;5053860;28;20087;-60
2022/07/03 07:49:26;;;;;;;106.13;100.85;;;;;;;;;;5057484;28;20020;-60
2022/07/03 07:51:51;;;;;;;119.00;113.07;;;;;;;;;;5055073;28;20021;-59
2022/07/03 07:54:16;;;;;;;139.20;132.30;;;;;;;;;;5056693;28;20055;-60
2022/07/03 07:56:42;;;;;;;66.68;63.33;;;;;;;;;;5056968;28;20442;-60
2022/07/03 07:59:07;;;;;;;59.55;56.55;;;;;;;;;;5056823;28;20060;-60
2022/07/03 08:07:11;;;;;;;34.63;32.83;;;;;;;;;;5025378;28;20041;-60
2022/07/03 08:09:36;;;;;;;41.08;39.00;;;;;;;;;;5059042;28;20036;-60
2022/07/03 08:12:02;;;;;;;77.20;73.40;;;;;;;;;;5056351;28;20017;-60
2022/07/03 08:14:28;;;;;;;93.22;88.65;;;;;;;;;;5054721;28;20522;-60
2022/07/03 08:16:53;;;;;;;97.75;92.95;;;;;;;;;;5056163;28;20106;-60
2022/07/03 08:19:18;;;;;;;106.47;101.25;;;;;;;;;;5055641;28;20454;-61
2022/07/03 08:21:44;;;;;;;109.63;104.28;;;;;;;;;;5055998;28;20060;-61
2022/07/03 08:24:10;;;;;;;104.97;99.82;;;;;;;;;;5055918;28;20032;-60
2022/07/03 08:26:36;;;;;;;108.10;102.82;;;;;;;;;;5057687;28;20020;-60
2022/07/03 08:29:01;;;;;;;87.07;82.80;;;;;;;;;;5058843;28;20024;-61
2022/07/03 08:31:27;;;;;;;79.43;75.40;;;;;;;;;;5056350;28;20049;-61
2022/07/03 08:33:52;;;;;;;75.05;71.32;;;;;;;;;;5054386;28;20226;-60
2022/07/03 08:36:18;;;;;;;81.72;77.70;;;;;;;;;;5054443;28;20025;-60
2022/07/03 08:38:43;;;;;;;104.32;99.00;;;;;;;;;;5056368;28;20020;-60
2022/07/03 08:41:10;;;;;;;87.88;83.55;;;;;;;;;;5059546;28;20134;-59
2022/07/03 08:43:36;;;;;;;97.43;92.65;;;;;;;;;;5054914;28;20040;-60
2022/07/03 08:46:03;;;;;;;114.03;108.45;;;;;;;;;;5053970;28;20775;-60
2022/07/03 08:48:32;;;;;;;96.30;91.57;;;;;;;;;;5050426;28;20485;-59
2022/07/03 08:50:59;;;;;;;116.47;110.72;;;;;;;;;;5053791;28;20033;-60
2022/07/03 08:53:25;;;;;;;134.27;127.70;;;;;;;;;;5052929;28;20051;-60
2022/07/03 08:55:51;;;;;;;131.68;125.20;;;;;;;;;;5054765;28;20017;-60
2022/07/03 08:58:19;;;;;;;144.00;136.90;;;;;;;;;;5053725;28;20091;-60
2022/07/03 09:00:45;;;;;;;134.07;127.47;;;;;;;;;;5057781;28;20025;-60
2022/07/03 09:03:11;;;;;;;150.00;142.60;;;;;;;;;;5056158;28;20086;-60
2022/07/03 09:05:38;;;;;;;156.00;148.32;;;;;;;;;;5049549;28;20601;-60
2022/07/03 09:08:06;;;;;;;152.95;145.40;;;;;;;;;;5054847;28;20526;-60
2022/07/03 09:10:31;;;;;;;136.13;129.43;;;;;;;;;;5056732;28;20021;-59
2022/07/03 09:12:57;;;;;;;143.63;136.57;;;;;;;;;;5056074;28;20063;-60
2022/07/03 09:15:23;;;;;;;135.93;129.25;;;;;;;;;;5053469;28;20067;-60
2022/07/03 09:18:05;;;;;;;123.95;117.90;;;;;;;;;;5052969;28;20043;-61
2022/07/03 09:20:34;;;;;;;126.38;120.18;;;;;;;;;;5054854;28;20029;-60
2022/07/03 09:23:14;;;;;;;123.25;117.20;;;;;;;;;;5054717;28;20029;-60
2022/07/03 09:25:57;;;;;;;143.25;136.25;;;;;;;;;;5051343;28;20054;-61
2022/07/03 09:28:24;;;;;;;120.35;114.45;;;;;;;;;;5050662;28;20033;-60
2022/07/03 09:31:00;;;;;;;123.80;117.70;;;;;;;;;;5053192;28;20036;-60
2022/07/03 09:33:26;;;;;;;89.68;85.28;;;;;;;;;;5052498;28;20024;-61
2022/07/03 09:35:54;;;;;;;86.53;82.25;;;;;;;;;;5049858;28;20124;-60
2022/07/03 09:38:19;;;;;;;82.75;78.65;;;;;;;;;;5053669;28;20389;-60
2022/07/03 09:40:54;;;;;;;93.45;88.85;;;;;;;;;;5056007;28;20043;-61
2022/07/03 09:43:28;;;;;;;92.88;88.30;;;;;;;;;;5051010;28;20335;-60
2022/07/03 09:45:56;;;;;;;90.93;86.43;;;;;;;;;;5057347;28;20041;-61
2022/07/03 09:48:30;;;;;;;100.43;95.50;;;;;;;;;;5054658;28;20406;-58
2022/07/03 09:51:26;;;;;;;93.88;89.22;;;;;;;;;;5056622;28;20032;-61
2022/07/03 09:53:52;;;;;;;101.57;96.60;;;;;;;;;;5050127;28;20043;-60
2022/07/03 09:56:24;;;;;;;139.38;132.50;;;;;;;;;;5055975;28;20032;-61
2022/07/03 09:59:10;;;;;;;104.70;99.57;;;;;;;;;;5061481;28;20025;-60
2022/07/03 10:01:40;;;;;;;150.95;143.52;;;;;;;;;;5055029;28;20044;-61
2022/07/03 10:04:12;;;;;;;163.00;154.98;;;;;;;;;;5054472;28;20097;-60
2022/07/03 10:06:55;;;;;;;161.63;153.68;;;;;;;;;;5049975;28;20051;-59
2022/07/03 10:09:32;;;;;;;150.07;142.68;;;;;;;;;;5051618;28;20024;-59
2022/07/03 10:11:58;;;;;;;160.20;152.32;;;;;;;;;;5050297;28;20462;-59
2022/07/03 10:14:26;;;;;;;164.30;156.20;;;;;;;;;;5049237;28;20048;-59
2022/07/03 10:16:52;;;;;;;148.98;141.60;;;;;;;;;;5051600;28;20032;-59
2022/07/03 10:19:23;;;;;;;148.68;141.38;;;;;;;;;;5037484;28;20029;-60
2022/07/03 10:21:54;;;;;;;151.90;144.38;;;;;;;;;;5053540;28;20804;-59
2022/07/03 10:24:25;;;;;;;105.85;100.65;;;;;;;;;;5051267;28;20051;-59
2022/07/03 10:26:53;;;;;;;116.80;111.03;;;;;;;;;;5051780;28;20028;-59
2022/07/03 10:29:21;;;;;;;120.47;114.55;;;;;;;;;;5051713;28;20029;-59
2022/07/03 10:31:47;;;;;;;116.13;110.43;;;;;;;;;;5049173;28;20044;-60
2022/07/03 10:34:24;;;;;;;137.20;130.45;;;;;;;;;;5049006;28;20740;-60
2022/07/03 10:37:02;;;;;;;125.07;118.90;;;;;;;;;;5053552;28;20062;-60
2022/07/03 10:46:10;;;;;;;134.07;127.47;;;;;;;;;;5055852;28;20024;-59
2022/07/03 10:49:10;;;;;;;129.65;123.25;;;;;;;;;;5056531;28;20071;-60
2022/07/03 10:51:44;;;;;;;136.75;130.00;;;;;;;;;;5020286;28;20707;-59
2022/07/03 10:54:14;;;;;;;124.47;118.38;;;;;;;;;;5051185;28;20642;-60
2022/07/03 10:56:58;;;;;;;86.25;82.03;;;;;;;;;;5052453;28;20462;-59
2022/07/03 10:59:36;;;;;;;74.40;70.70;;;;;;;;;;5051439;28;20052;-59
2022/07/03 11:02:17;;;;;;;83.25;79.15;;;;;;;;;;5051202;28;20029;-59
2022/07/03 11:05:03;;;;;;;94.45;89.80;;;;;;;;;;5048582;28;20131;-60
2022/07/03 11:07:49;;;;;;;97.43;92.60;;;;;;;;;;5052126;28;20057;-61
2022/07/03 11:10:15;;;;;;;51.72;49.13;;;;;;;;;;5050602;28;20285;-61
2022/07/03 11:12:55;;;;;;;52.30;49.67;;;;;;;;;;5049861;28;20250;-59
2022/07/03 11:15:53;;;;;;;45.30;42.88;;;;;;;;;;5049913;28;20039;-59
2022/07/03 11:18:34;;;;;;;44.45;42.17;;;;;;;;;;5052648;28;20132;-59
2022/07/03 11:21:15;;;;;;;49.08;46.58;;;;;;;;;;5048793;28;20039;-60
2022/07/03 11:23:53;;;;;;;57.67;54.78;;;;;;;;;;5050325;28;20047;-59
2022/07/03 11:26:21;;;;;;;61.22;58.13;;;;;;;;;;5049947;28;20479;-59
2022/07/03 11:28:47;;;;;;;71.95;68.40;;;;;;;;;;5053212;28;20043;-59
2022/07/03 11:31:18;;;;;;;73.88;70.22;;;;;;;;;;5058282;28;20025;-59
2022/07/03 11:33:44;;;;;;;70.32;66.82;;;;;;;;;;5056399;28;20028;-59
2022/07/03 11:36:16;;;;;;;73.65;70.00;;;;;;;;;;5057625;28;20615;-59
2022/07/03 11:38:43;;;;;;;76.13;72.32;;;;;;;;;;5056133;28;20055;-59
2022/07/03 11:41:10;;;;;;;74.47;70.78;;;;;;;;;;5057486;28;20062;-59
2022/07/03 11:43:36;;;;;;;72.00;68.40;;;;;;;;;;5059790;28;20111;-59
2022/07/03 11:46:03;;;;;;;55.80;53.00;;;;;;;;;;5057654;28;20047;-59
2022/07/03 11:48:30;;;;;;;52.65;50.00;;;;;;;;;;5058515;28;20339;-59
2022/07/03 11:51:01;;;;;;;31.70;29.98;;;;;;;;;;5057039;28;20130;-59
2022/07/03 11:53:32;;;;;;;28.73;27.23;;;;;;;;;;5059883;28;20020;-60
2022/07/03 11:56:03;;;;;;;23.45;22.17;;;;;;;;;;5060515;28;20037;-60
2022/07/03 11:58:46;;;;;;;27.88;26.35;;;;;;;;;;5054992;28;20341;-59
2022/07/03 12:01:29;;;;;;;25.33;24.02;;;;;;;;;;5055740;28;20029;-59
2022/07/03 12:04:06;;;;;;;24.83;23.52;;;;;;;;;;5060337;28;20025;-59
2022/07/03 12:06:42;;;;;;;28.30;26.80;;;;;;;;;;5056709;28;20040;-59
2022/07/03 12:09:21;;;;;;;24.67;23.38;;;;;;;;;;5058833;28;20095;-59
2022/07/03 12:11:57;;;;;;;26.85;25.45;;;;;;;;;;5056302;28;20033;-58
2022/07/03 12:14:42;;;;;;;24.75;23.45;;;;;;;;;;5056288;28;20442;-59
2022/07/03 12:17:13;;;;;;;32.58;30.88;;;;;;;;;;5058520;28;20064;-59
2022/07/03 12:19:48;;;;;;;32.92;31.23;;;;;;;;;;5059401;28;20095;-57
2022/07/03 12:22:25;;;;;;;31.33;29.73;;;;;;;;;;5064932;28;20482;-58
2022/07/03 12:24:57;;;;;;;35.90;34.05;;;;;;;;;;5058400;28;20058;-58
2022/07/03 12:27:23;;;;;;;42.22;40.08;;;;;;;;;;5058366;28;20024;-58
2022/07/03 12:29:48;;;;;;;39.65;37.65;;;;;;;;;;5058678;28;20051;-60
2022/07/03 12:32:14;;;;;;;32.20;30.52;;;;;;;;;;5059203;28;20094;-59
2022/07/03 12:34:40;;;;;;;34.10;32.35;;;;;;;;;;5057936;28;20024;-58
2022/07/03 12:37:05;;;;;;;32.88;31.17;;;;;;;;;;5055834;28;20462;-59
2022/07/03 12:39:47;;;;;;;36.47;34.63;;;;;;;;;;5055951;28;20037;-58
2022/07/03 12:42:20;;;;;;;34.88;33.08;;;;;;;;;;5056491;28;20025;-58
2022/07/03 12:44:59;;;;;;;47.88;45.47;;;;;;;;;;5053778;28;20115;-59
2022/07/03 12:47:25;;;;;;;38.60;36.60;;;;;;;;;;5055569;28;20028;-59
2022/07/03 12:50:03;;;;;;;34.85;33.05;;;;;;;;;;5064035;28;20608;-59
2022/07/03 12:52:32;;;;;;;29.30;27.80;;;;;;;;;;5058289;28;20036;-58
2022/07/03 12:54:58;;;;;;;;;;;;;;;;;;5053715;28;20024;-58
2022/07/03 13:00:10;;;;;;;38.97;36.90;;;;;;;;;;5055700;28;20029;-59
2022/07/03 13:02:37;;;;;;;30.23;28.63;;;;;;;;;;5056852;28;20194;-59
2022/07/03 13:05:19;;;;;;;30.92;29.33;;;;;;;;;;5056470;28;20044;-59
2022/07/03 13:07:46;;;;;;;30.10;28.52;;;;;;;;;;5058209;28;20097;-58
2022/07/03 13:10:14;;;;;;;21.55;20.38;;;;;;;;;;5056478;28;20129;-58
2022/07/03 13:13:06;;;;;;;20.88;19.63;;;;;;;;;;5053822;28;20024;-59
2022/07/03 13:15:32;;;;;;;22.77;21.25;;;;;;;;;;5052384;28;20091;-58
2022/07/03 13:18:00;;;;;;;20.40;19.30;;;;;;;;;;5058084;28;20119;-58
2022/07/03 13:20:28;;;;;;;20.48;19.38;;;;;;;;;;5055888;28;20029;-60
2022/07/03 13:22:59;;;;;;;19.00;18.00;;;;;;;;;;5054676;28;20127;-59
2022/07/03 13:25:25;;;;;;;19.80;18.70;;;;;;;;;;5054356;28;20067;-59
2022/07/03 13:27:51;;;;;;;19.83;18.73;;;;;;;;;;5056753;28;20029;-58
2022/07/03 13:30:18;;;;;;;20.60;19.50;;;;;;;;;;5044699;28;20016;-62
2022/07/03 13:32:45;;;;;;;18.02;17.02;;;;;;;;;;5055756;28;20033;-61
2022/07/03 13:35:10;;;;;;;19.90;18.80;;;;;;;;;;5055100;28;20028;-61
2022/07/03 13:37:36;;;;;;;18.40;17.40;;;;;;;;;;5053653;28;20029;-61
2022/07/03 13:40:03;;;;;;;20.65;19.55;;;;;;;;;;5052005;28;20037;-62
2022/07/03 13:42:28;;;;;;;20.42;19.33;;;;;;;;;;5052604;28;20037;-64
2022/07/03 13:44:53;;;;;;;20.27;19.17;;;;;;;;;;5055996;28;20470;-62
2022/07/03 13:47:19;;;;;;;21.38;20.23;;;;;;;;;;5056958;28;20032;-63
2022/07/03 13:49:44;;;;;;;19.27;18.20;;;;;;;;;;5053145;28;20056;-61
2022/07/03 13:52:10;;;;;;;23.45;22.23;;;;;;;;;;5055327;28;20025;-60
2022/07/03 13:54:35;;;;;;;23.20;22.00;;;;;;;;;;5052537;28;20477;-60
2022/07/03 13:57:02;;;;;;;23.33;22.10;;;;;;;;;;5052533;28;20028;-60
2022/07/03 13:59:27;;;;;;;23.95;22.67;;;;;;;;;;5056331;28;20081;-60
2022/07/03 14:01:52;;;;;;;22.80;21.60;;;;;;;;;;5057667;28;20024;-61
2022/07/03 14:04:17;;;;;;;21.85;20.55;;;;;;;;;;5057743;28;20032;-62
2022/07/03 14:06:43;;;;;;;18.50;17.48;;;;;;;;;;5058371;28;20036;-61
2022/07/03 14:09:08;;;;;;;23.10;21.90;;;;;;;;;;5058989;28;20020;-60
2022/07/03 14:11:33;;;;;;;22.98;21.67;;;;;;;;;;5059611;28;20025;-62
2022/07/03 14:13:59;;;;;;;22.58;21.38;;;;;;;;;;5057877;28;20028;-62
2022/07/03 14:16:24;;;;;;;25.95;24.55;;;;;;;;;;5060496;28;20108;-62
2022/07/03 14:18:49;;;;;;;23.88;22.60;;;;;;;;;;5061453;28;20020;-62
2022/07/03 14:21:15;;;;;;;28.40;26.90;;;;;;;;;;5059109;28;20078;-62
2022/07/03 14:23:40;;;;;;;27.95;26.45;;;;;;;;;;5058351;28;20028;-60
2022/07/03 14:26:06;;;;;;;34.30;32.50;;;;;;;;;;5059148;28;20028;-62
2022/07/03 14:33:50;;;;;;;31.80;30.20;;;;;;;;;;5056531;28;20054;-60
2022/07/03 14:36:16;;;;;;;28.55;27.05;;;;;;;;;;5056113;28;20045;-60
2022/07/03 14:38:41;;;;;;;29.92;28.38;;;;;;;;;;5053328;28;20028;-60
2022/07/03 14:41:07;;;;;;;30.60;29.00;;;;;;;;;;5055016;28;20040;-61
2022/07/03 14:43:32;;;;;;;32.45;30.77;;;;;;;;;;5054519;28;20036;-61
2022/07/03 14:45:58;;;;;;;30.80;29.20;;;;;;;;;;5055374;28;20421;-61
2022/07/03 14:48:24;;;;;;;31.73;30.10;;;;;;;;;;5055279;28;20029;-61
2022/07/03 14:50:50;;;;;;;34.20;32.42;;;;;;;;;;5052118;28;20048;-63
2022/07/03 14:53:15;;;;;;;32.88;31.17;;;;;;;;;;5057517;28;20044;-62